sensor_id;sensor_type;location;lat;lon;timestamp;P1;durP1;ratioP1;P2;durP2;ratioP2
43413;SDS011;29013;49.676;8.606;2022-12-07T00:03:46;8.1;;;3.87;;
43413;SDS011;29013;49.676;8.606;2022-12-07T00:09:11;6.51;;;4.01;;
43413;SDS011;29013;49.676;8.606;2022-12-07T00:14:37;6.33;;;4.08;;
43413;SDS011;29013;49.676;8.606;2022-12-07T00:20:07;6.98;;;4.01;;
43413;SDS011;29013;49.676;8.606;2022-12-07T00:25:33;7.19;;;4.09;;
43413;SDS011;29013;49.676;8.606;2022-12-07T00:31:01;8.57;;;4.41;;
43413;SDS011;29013;49.676;8.606;2022-12-07T00:36:25;7.68;;;4.41;;
43413;SDS011;29013;49.676;8.606;2022-12-07T00:41:46;7.26;;;4.48;;
43413;SDS011;29013;49.676;8.606;2022-12-07T00:47:14;5.07;;;3.52;;
43413;SDS011;29013;49.676;8.606;2022-12-07T00:52:38;6.79;;;3.72;;
43413;SDS011;29013;49.676;8.606;2022-12-07T00:58:04;7.0;;;3.49;;
43413;SDS011;29013;49.676;8.606;2022-12-07T01:03:30;7.59;;;4.19;;
43413;SDS011;29013;49.676;8.606;2022-12-07T01:09:05;6.24;;;3.76;;
43413;SDS011;29013;49.676;8.606;2022-12-07T01:14:26;6.6;;;3.8;;
43413;SDS011;29013;49.676;8.606;2022-12-07T01:19:54;7.92;;;4.26;;
43413;SDS011;29013;49.676;8.606;2022-12-07T01:25:21;7.59;;;4.33;;
43413;SDS011;29013;49.676;8.606;2022-12-07T01:30:46;6.08;;;3.76;;
43413;SDS011;29013;49.676;8.606;2022-12-07T01:36:18;6.25;;;3.56;;
43413;SDS011;29013;49.676;8.606;2022-12-07T01:41:41;7.08;;;4.11;;
43413;SDS011;29013;49.676;8.606;2022-12-07T01:47:07;7.59;;;4.03;;
43413;SDS011;29013;49.676;8.606;2022-12-07T01:52:34;7.92;;;4.1;;
43413;SDS011;29013;49.676;8.606;2022-12-07T01:58:04;6.68;;;3.97;;
43413;SDS011;29013;49.676;8.606;2022-12-07T02:03:31;7.73;;;4.19;;
43413;SDS011;29013;49.676;8.606;2022-12-07T02:08:55;6.11;;;3.79;;
43413;SDS011;29013;49.676;8.606;2022-12-07T02:14:22;6.14;;;3.98;;
43413;SDS011;29013;49.676;8.606;2022-12-07T02:25:37;6.37;;;3.78;;
43413;SDS011;29013;49.676;8.606;2022-12-07T02:31:03;7.11;;;4.29;;
43413;SDS011;29013;49.676;8.606;2022-12-07T02:36:29;9.61;;;4.07;;
43413;SDS011;29013;49.676;8.606;2022-12-07T02:41:56;7.64;;;4.15;;
43413;SDS011;29013;49.676;8.606;2022-12-07T02:47:20;6.88;;;4.1;;
43413;SDS011;29013;49.676;8.606;2022-12-07T02:52:46;9.71;;;4.34;;
43413;SDS011;29013;49.676;8.606;2022-12-07T02:58:17;7.5;;;4.25;;
43413;SDS011;29013;49.676;8.606;2022-12-07T03:03:48;7.64;;;4.55;;
43413;SDS011;29013;49.676;8.606;2022-12-07T03:09:13;7.49;;;4.03;;
43413;SDS011;29013;49.676;8.606;2022-12-07T03:14:41;7.09;;;3.96;;
43413;SDS011;29013;49.676;8.606;2022-12-07T03:20:08;7.37;;;3.69;;
43413;SDS011;29013;49.676;8.606;2022-12-07T03:25:28;7.79;;;3.77;;
43413;SDS011;29013;49.676;8.606;2022-12-07T03:30:54;6.39;;;3.96;;
43413;SDS011;29013;49.676;8.606;2022-12-07T03:36:22;7.38;;;4.05;;
43413;SDS011;29013;49.676;8.606;2022-12-07T03:41:47;7.31;;;4.22;;
43413;SDS011;29013;49.676;8.606;2022-12-07T03:47:12;7.45;;;4.14;;
43413;SDS011;29013;49.676;8.606;2022-12-07T03:52:41;7.09;;;4.26;;
43413;SDS011;29013;49.676;8.606;2022-12-07T03:58:12;8.03;;;4.27;;
43413;SDS011;29013;49.676;8.606;2022-12-07T04:03:36;7.25;;;3.98;;
43413;SDS011;29013;49.676;8.606;2022-12-07T04:09:00;8.03;;;3.95;;
43413;SDS011;29013;49.676;8.606;2022-12-07T04:14:25;6.78;;;4.51;;
43413;SDS011;29013;49.676;8.606;2022-12-07T04:19:50;6.94;;;4.14;;
43413;SDS011;29013;49.676;8.606;2022-12-07T04:25:15;8.4;;;4.33;;
43413;SDS011;29013;49.676;8.606;2022-12-07T04:30:40;7.63;;;4.25;;
43413;SDS011;29013;49.676;8.606;2022-12-07T04:36:08;6.88;;;4.15;;
43413;SDS011;29013;49.676;8.606;2022-12-07T04:41:48;8.0;;;4.35;;
43413;SDS011;29013;49.676;8.606;2022-12-07T04:47:13;6.9;;;3.96;;
43413;SDS011;29013;49.676;8.606;2022-12-07T04:52:40;8.07;;;4.58;;
43413;SDS011;29013;49.676;8.606;2022-12-07T04:58:06;9.15;;;4.48;;
43413;SDS011;29013;49.676;8.606;2022-12-07T05:03:33;7.11;;;3.98;;
43413;SDS011;29013;49.676;8.606;2022-12-07T05:09:01;8.02;;;4.92;;
43413;SDS011;29013;49.676;8.606;2022-12-07T05:14:32;8.27;;;4.44;;
43413;SDS011;29013;49.676;8.606;2022-12-07T05:19:56;8.98;;;4.85;;
43413;SDS011;29013;49.676;8.606;2022-12-07T05:25:37;7.76;;;4.85;;
43413;SDS011;29013;49.676;8.606;2022-12-07T05:30:58;10.5;;;4.5;;
43413;SDS011;29013;49.676;8.606;2022-12-07T05:36:24;7.36;;;4.35;;
43413;SDS011;29013;49.676;8.606;2022-12-07T05:41:48;8.92;;;4.53;;
43413;SDS011;29013;49.676;8.606;2022-12-07T05:47:26;9.49;;;4.8;;
43413;SDS011;29013;49.676;8.606;2022-12-07T05:52:52;9.79;;;4.9;;
43413;SDS011;29013;49.676;8.606;2022-12-07T05:58:16;7.45;;;4.38;;
43413;SDS011;29013;49.676;8.606;2022-12-07T06:03:40;8.45;;;4.41;;
43413;SDS011;29013;49.676;8.606;2022-12-07T06:09:07;7.86;;;4.12;;
43413;SDS011;29013;49.676;8.606;2022-12-07T06:14:30;7.52;;;4.3;;
43413;SDS011;29013;49.676;8.606;2022-12-07T06:19:54;9.19;;;4.09;;
43413;SDS011;29013;49.676;8.606;2022-12-07T06:25:20;8.73;;;4.44;;
43413;SDS011;29013;49.676;8.606;2022-12-07T06:30:47;7.82;;;4.55;;
43413;SDS011;29013;49.676;8.606;2022-12-07T06:36:19;8.5;;;4.65;;
43413;SDS011;29013;49.676;8.606;2022-12-07T06:41:47;8.22;;;4.3;;
43413;SDS011;29013;49.676;8.606;2022-12-07T06:47:11;8.65;;;4.52;;
43413;SDS011;29013;49.676;8.606;2022-12-07T06:52:37;6.65;;;4.36;;
43413;SDS011;29013;49.676;8.606;2022-12-07T06:58:00;7.66;;;4.47;;
43413;SDS011;29013;49.676;8.606;2022-12-07T07:03:27;8.19;;;4.32;;
43413;SDS011;29013;49.676;8.606;2022-12-07T07:08:48;8.19;;;4.3;;
43413;SDS011;29013;49.676;8.606;2022-12-07T07:14:13;7.3;;;3.88;;
43413;SDS011;29013;49.676;8.606;2022-12-07T07:19:36;7.87;;;4.17;;
43413;SDS011;29013;49.676;8.606;2022-12-07T07:25:00;7.25;;;4.33;;
43413;SDS011;29013;49.676;8.606;2022-12-07T07:30:26;7.98;;;4.02;;
43413;SDS011;29013;49.676;8.606;2022-12-07T07:35:52;7.22;;;3.92;;
43413;SDS011;29013;49.676;8.606;2022-12-07T07:41:18;9.18;;;4.32;;
43413;SDS011;29013;49.676;8.606;2022-12-07T07:46:45;8.66;;;4.05;;
43413;SDS011;29013;49.676;8.606;2022-12-07T07:52:11;8.15;;;4.57;;
43413;SDS011;29013;49.676;8.606;2022-12-07T07:57:38;6.57;;;3.91;;
43413;SDS011;29013;49.676;8.606;2022-12-07T08:03:04;6.17;;;4.21;;
43413;SDS011;29013;49.676;8.606;2022-12-07T08:08:27;6.53;;;4.08;;
43413;SDS011;29013;49.676;8.606;2022-12-07T08:13:54;6.5;;;3.84;;
43413;SDS011;29013;49.676;8.606;2022-12-07T08:19:18;7.39;;;4.51;;
43413;SDS011;29013;49.676;8.606;2022-12-07T08:24:45;9.59;;;4.61;;
43413;SDS011;29013;49.676;8.606;2022-12-07T08:30:10;9.38;;;4.91;;
43413;SDS011;29013;49.676;8.606;2022-12-07T08:35:34;8.71;;;5.11;;
43413;SDS011;29013;49.676;8.606;2022-12-07T08:40:57;8.4;;;4.71;;
43413;SDS011;29013;49.676;8.606;2022-12-07T08:46:23;9.94;;;5.52;;
43413;SDS011;29013;49.676;8.606;2022-12-07T08:51:45;8.69;;;4.84;;
43413;SDS011;29013;49.676;8.606;2022-12-07T08:57:09;8.58;;;5.4;;
43413;SDS011;29013;49.676;8.606;2022-12-07T09:02:34;8.28;;;4.57;;
43413;SDS011;29013;49.676;8.606;2022-12-07T09:08:00;8.98;;;4.99;;
43413;SDS011;29013;49.676;8.606;2022-12-07T09:13:26;9.27;;;5.35;;
43413;SDS011;29013;49.676;8.606;2022-12-07T09:18:52;8.06;;;4.96;;
43413;SDS011;29013;49.676;8.606;2022-12-07T09:24:15;8.9;;;4.68;;
43413;SDS011;29013;49.676;8.606;2022-12-07T09:29:43;10.87;;;5.38;;
43413;SDS011;29013;49.676;8.606;2022-12-07T09:35:08;9.46;;;5.62;;
43413;SDS011;29013;49.676;8.606;2022-12-07T09:40:29;11.36;;;5.05;;
43413;SDS011;29013;49.676;8.606;2022-12-07T09:45:56;9.52;;;5.35;;
43413;SDS011;29013;49.676;8.606;2022-12-07T09:51:20;10.45;;;4.58;;
43413;SDS011;29013;49.676;8.606;2022-12-07T09:56:44;9.21;;;5.74;;
43413;SDS011;29013;49.676;8.606;2022-12-07T10:02:21;10.02;;;5.62;;
43413;SDS011;29013;49.676;8.606;2022-12-07T10:07:48;9.86;;;5.3;;
43413;SDS011;29013;49.676;8.606;2022-12-07T10:13:15;9.71;;;5.95;;
43413;SDS011;29013;49.676;8.606;2022-12-07T10:18:40;10.27;;;5.58;;
43413;SDS011;29013;49.676;8.606;2022-12-07T10:24:13;9.89;;;5.58;;
43413;SDS011;29013;49.676;8.606;2022-12-07T10:29:33;9.9;;;5.46;;
43413;SDS011;29013;49.676;8.606;2022-12-07T10:35:15;11.59;;;5.97;;
43413;SDS011;29013;49.676;8.606;2022-12-07T10:40:44;9.71;;;5.13;;
43413;SDS011;29013;49.676;8.606;2022-12-07T10:46:17;9.47;;;5.16;;
43413;SDS011;29013;49.676;8.606;2022-12-07T10:51:50;10.57;;;5.48;;
43413;SDS011;29013;49.676;8.606;2022-12-07T10:57:25;11.54;;;5.79;;
43413;SDS011;29013;49.676;8.606;2022-12-07T11:03:02;7.65;;;5.14;;
43413;SDS011;29013;49.676;8.606;2022-12-07T11:08:44;9.62;;;5.53;;
43413;SDS011;29013;49.676;8.606;2022-12-07T11:14:15;10.53;;;6.15;;
43413;SDS011;29013;49.676;8.606;2022-12-07T11:19:52;10.13;;;5.85;;
43413;SDS011;29013;49.676;8.606;2022-12-07T11:25:23;10.51;;;5.62;;
43413;SDS011;29013;49.676;8.606;2022-12-07T11:30:48;11.67;;;5.93;;
43413;SDS011;29013;49.676;8.606;2022-12-07T11:36:17;9.67;;;5.32;;
43413;SDS011;29013;49.676;8.606;2022-12-07T11:41:44;10.22;;;5.55;;
43413;SDS011;29013;49.676;8.606;2022-12-07T11:47:08;10.0;;;5.6;;
43413;SDS011;29013;49.676;8.606;2022-12-07T11:52:38;11.02;;;5.53;;
43413;SDS011;29013;49.676;8.606;2022-12-07T11:58:11;9.47;;;5.54;;
43413;SDS011;29013;49.676;8.606;2022-12-07T12:03:29;11.2;;;6.04;;
43413;SDS011;29013;49.676;8.606;2022-12-07T12:08:53;9.82;;;5.67;;
43413;SDS011;29013;49.676;8.606;2022-12-07T12:20:02;9.52;;;5.62;;
43413;SDS011;29013;49.676;8.606;2022-12-07T12:25:26;7.11;;;4.63;;
43413;SDS011;29013;49.676;8.606;2022-12-07T12:31:11;11.63;;;5.71;;
43413;SDS011;29013;49.676;8.606;2022-12-07T12:42:19;5.21;;;2.65;;
43413;SDS011;29013;49.676;8.606;2022-12-07T12:53:40;2.49;;;1.47;;
43413;SDS011;29013;49.676;8.606;2022-12-07T12:59:23;4.37;;;1.41;;
43413;SDS011;29013;49.676;8.606;2022-12-07T13:04:52;5.95;;;1.63;;
43413;SDS011;29013;49.676;8.606;2022-12-07T13:10:20;3.1;;;1.6;;
43413;SDS011;29013;49.676;8.606;2022-12-07T13:16:38;2.89;;;1.65;;
43413;SDS011;29013;49.676;8.606;2022-12-07T13:21:43;1.97;;;1.52;;
43413;SDS011;29013;49.676;8.606;2022-12-07T13:27:09;2.57;;;1.22;;
43413;SDS011;29013;49.676;8.606;2022-12-07T13:32:33;1.73;;;1.53;;
43413;SDS011;29013;49.676;8.606;2022-12-07T13:37:56;2.71;;;1.53;;
43413;SDS011;29013;49.676;8.606;2022-12-07T13:43:19;1.97;;;1.47;;
43413;SDS011;29013;49.676;8.606;2022-12-07T13:48:47;3.54;;;1.75;;
43413;SDS011;29013;49.676;8.606;2022-12-07T13:54:12;7.56;;;2.13;;
43413;SDS011;29013;49.676;8.606;2022-12-07T13:59:39;4.28;;;1.83;;
43413;SDS011;29013;49.676;8.606;2022-12-07T14:05:08;4.37;;;2.15;;
43413;SDS011;29013;49.676;8.606;2022-12-07T14:10:34;2.89;;;2.13;;
43413;SDS011;29013;49.676;8.606;2022-12-07T14:15:57;3.81;;;2.19;;
43413;SDS011;29013;49.676;8.606;2022-12-07T14:21:19;3.32;;;1.94;;
43413;SDS011;29013;49.676;8.606;2022-12-07T14:26:44;4.26;;;2.11;;
43413;SDS011;29013;49.676;8.606;2022-12-07T14:37:52;3.05;;;2.11;;
43413;SDS011;29013;49.676;8.606;2022-12-07T14:43:14;4.05;;;1.82;;
43413;SDS011;29013;49.676;8.606;2022-12-07T14:48:36;5.37;;;1.99;;
43413;SDS011;29013;49.676;8.606;2022-12-07T14:54:02;4.06;;;2.02;;
43413;SDS011;29013;49.676;8.606;2022-12-07T14:59:28;3.7;;;2.02;;
43413;SDS011;29013;49.676;8.606;2022-12-07T15:04:54;4.93;;;1.97;;
43413;SDS011;29013;49.676;8.606;2022-12-07T15:10:21;4.65;;;2.11;;
43413;SDS011;29013;49.676;8.606;2022-12-07T15:15:42;7.85;;;2.22;;
43413;SDS011;29013;49.676;8.606;2022-12-07T15:21:11;4.41;;;2.12;;
43413;SDS011;29013;49.676;8.606;2022-12-07T15:26:38;3.07;;;1.71;;
43413;SDS011;29013;49.676;8.606;2022-12-07T15:31:59;3.44;;;2.08;;
43413;SDS011;29013;49.676;8.606;2022-12-07T15:37:26;3.02;;;1.74;;
43413;SDS011;29013;49.676;8.606;2022-12-07T15:42:53;2.72;;;1.79;;
43413;SDS011;29013;49.676;8.606;2022-12-07T15:48:18;4.87;;;1.94;;
43413;SDS011;29013;49.676;8.606;2022-12-07T15:53:44;2.36;;;1.64;;
43413;SDS011;29013;49.676;8.606;2022-12-07T15:59:08;3.64;;;1.66;;
43413;SDS011;29013;49.676;8.606;2022-12-07T16:04:33;1.99;;;1.5;;
43413;SDS011;29013;49.676;8.606;2022-12-07T16:09:59;2.41;;;1.84;;
43413;SDS011;29013;49.676;8.606;2022-12-07T16:15:21;3.53;;;1.93;;
43413;SDS011;29013;49.676;8.606;2022-12-07T16:20:48;3.4;;;2.12;;
43413;SDS011;29013;49.676;8.606;2022-12-07T16:26:13;4.97;;;1.77;;
43413;SDS011;29013;49.676;8.606;2022-12-07T16:31:38;5.14;;;2.13;;
43413;SDS011;29013;49.676;8.606;2022-12-07T16:37:04;5.69;;;1.88;;
43413;SDS011;29013;49.676;8.606;2022-12-07T16:42:29;4.06;;;2.09;;
43413;SDS011;29013;49.676;8.606;2022-12-07T16:47:54;3.37;;;1.73;;
43413;SDS011;29013;49.676;8.606;2022-12-07T16:53:15;3.54;;;1.92;;
43413;SDS011;29013;49.676;8.606;2022-12-07T17:12:07;3.85;;;2.03;;
43413;SDS011;29013;49.676;8.606;2022-12-07T17:17:31;3.42;;;2.2;;
43413;SDS011;29013;49.676;8.606;2022-12-07T17:22:58;4.23;;;2.36;;
43413;SDS011;29013;49.676;8.606;2022-12-07T17:28:22;2.8;;;1.98;;
43413;SDS011;29013;49.676;8.606;2022-12-07T17:33:46;3.43;;;2.23;;
43413;SDS011;29013;49.676;8.606;2022-12-07T17:39:15;5.78;;;2.7;;
43413;SDS011;29013;49.676;8.606;2022-12-07T17:44:39;4.02;;;2.43;;
43413;SDS011;29013;49.676;8.606;2022-12-07T17:50:07;3.96;;;2.25;;
43413;SDS011;29013;49.676;8.606;2022-12-07T17:55:28;4.52;;;2.46;;
43413;SDS011;29013;49.676;8.606;2022-12-07T18:00:53;4.59;;;2.61;;
43413;SDS011;29013;49.676;8.606;2022-12-07T18:06:20;3.97;;;2.56;;
43413;SDS011;29013;49.676;8.606;2022-12-07T18:11:46;4.46;;;2.47;;
43413;SDS011;29013;49.676;8.606;2022-12-07T18:17:14;3.64;;;2.46;;
43413;SDS011;29013;49.676;8.606;2022-12-07T18:22:39;5.49;;;2.5;;
43413;SDS011;29013;49.676;8.606;2022-12-07T18:28:07;4.48;;;2.52;;
43413;SDS011;29013;49.676;8.606;2022-12-07T18:33:32;4.55;;;2.37;;
43413;SDS011;29013;49.676;8.606;2022-12-07T18:38:58;4.0;;;2.56;;
43413;SDS011;29013;49.676;8.606;2022-12-07T18:44:24;4.31;;;2.39;;
43413;SDS011;29013;49.676;8.606;2022-12-07T18:49:49;4.38;;;2.76;;
43413;SDS011;29013;49.676;8.606;2022-12-07T18:55:14;2.53;;;2.12;;
43413;SDS011;29013;49.676;8.606;2022-12-07T19:00:40;4.51;;;2.39;;
43413;SDS011;29013;49.676;8.606;2022-12-07T19:06:06;9.04;;;2.5;;
43413;SDS011;29013;49.676;8.606;2022-12-07T19:11:31;4.8;;;2.79;;
43413;SDS011;29013;49.676;8.606;2022-12-07T19:16:57;5.27;;;2.58;;
43413;SDS011;29013;49.676;8.606;2022-12-07T19:22:23;4.55;;;3.09;;
43413;SDS011;29013;49.676;8.606;2022-12-07T19:27:50;5.74;;;2.83;;
43413;SDS011;29013;49.676;8.606;2022-12-07T19:33:11;5.56;;;2.77;;
43413;SDS011;29013;49.676;8.606;2022-12-07T19:38:33;4.95;;;3.26;;
43413;SDS011;29013;49.676;8.606;2022-12-07T19:43:59;7.0;;;4.04;;
43413;SDS011;29013;49.676;8.606;2022-12-07T19:49:27;8.42;;;4.83;;
43413;SDS011;29013;49.676;8.606;2022-12-07T19:54:50;8.62;;;4.52;;
43413;SDS011;29013;49.676;8.606;2022-12-07T20:00:18;7.9;;;5.04;;
43413;SDS011;29013;49.676;8.606;2022-12-07T20:05:45;9.39;;;4.99;;
43413;SDS011;29013;49.676;8.606;2022-12-07T20:11:12;9.81;;;5.65;;
43413;SDS011;29013;49.676;8.606;2022-12-07T20:16:37;8.9;;;5.63;;
43413;SDS011;29013;49.676;8.606;2022-12-07T20:22:02;9.34;;;5.08;;
43413;SDS011;29013;49.676;8.606;2022-12-07T20:27:29;8.48;;;4.84;;
43413;SDS011;29013;49.676;8.606;2022-12-07T20:32:53;10.94;;;5.88;;
43413;SDS011;29013;49.676;8.606;2022-12-07T20:38:18;10.64;;;5.85;;
43413;SDS011;29013;49.676;8.606;2022-12-07T20:43:45;10.21;;;5.87;;
43413;SDS011;29013;49.676;8.606;2022-12-07T20:49:13;9.99;;;5.39;;
43413;SDS011;29013;49.676;8.606;2022-12-07T20:54:39;9.43;;;5.9;;
43413;SDS011;29013;49.676;8.606;2022-12-07T21:00:05;10.93;;;6.5;;
43413;SDS011;29013;49.676;8.606;2022-12-07T21:05:28;9.01;;;5.15;;
43413;SDS011;29013;49.676;8.606;2022-12-07T21:10:53;10.22;;;6.03;;
43413;SDS011;29013;49.676;8.606;2022-12-07T21:16:18;10.42;;;6.03;;
43413;SDS011;29013;49.676;8.606;2022-12-07T21:21:44;10.07;;;5.6;;
43413;SDS011;29013;49.676;8.606;2022-12-07T21:27:07;13.87;;;6.27;;
43413;SDS011;29013;49.676;8.606;2022-12-07T21:32:34;10.56;;;6.27;;
43413;SDS011;29013;49.676;8.606;2022-12-07T21:37:57;9.87;;;5.31;;
43413;SDS011;29013;49.676;8.606;2022-12-07T21:43:22;11.11;;;6.7;;
43413;SDS011;29013;49.676;8.606;2022-12-07T21:48:50;10.93;;;6.15;;
43413;SDS011;29013;49.676;8.606;2022-12-07T21:54:14;11.1;;;6.5;;
43413;SDS011;29013;49.676;8.606;2022-12-07T21:59:40;10.81;;;6.11;;
43413;SDS011;29013;49.676;8.606;2022-12-07T22:05:08;10.33;;;6.4;;
43413;SDS011;29013;49.676;8.606;2022-12-07T22:10:29;10.92;;;6.72;;
43413;SDS011;29013;49.676;8.606;2022-12-07T22:15:53;13.08;;;6.67;;
43413;SDS011;29013;49.676;8.606;2022-12-07T22:21:21;13.8;;;6.8;;
43413;SDS011;29013;49.676;8.606;2022-12-07T22:26:46;10.61;;;6.22;;
43413;SDS011;29013;49.676;8.606;2022-12-07T22:32:13;12.81;;;6.17;;
43413;SDS011;29013;49.676;8.606;2022-12-07T22:37:41;12.8;;;6.83;;
43413;SDS011;29013;49.676;8.606;2022-12-07T22:43:08;13.23;;;6.79;;
43413;SDS011;29013;49.676;8.606;2022-12-07T22:48:30;11.26;;;6.52;;
43413;SDS011;29013;49.676;8.606;2022-12-07T22:53:57;10.51;;;5.92;;
43413;SDS011;29013;49.676;8.606;2022-12-07T22:59:21;13.74;;;7.32;;
43413;SDS011;29013;49.676;8.606;2022-12-07T23:04:45;10.09;;;6.4;;
43413;SDS011;29013;49.676;8.606;2022-12-07T23:10:12;11.36;;;6.87;;
43413;SDS011;29013;49.676;8.606;2022-12-07T23:15:39;9.52;;;5.49;;
43413;SDS011;29013;49.676;8.606;2022-12-07T23:21:05;12.26;;;6.94;;
43413;SDS011;29013;49.676;8.606;2022-12-07T23:26:35;7.86;;;4.59;;
43413;SDS011;29013;49.676;8.606;2022-12-07T23:31:56;12.49;;;6.68;;
43413;SDS011;29013;49.676;8.606;2022-12-07T23:37:21;11.45;;;6.56;;
43413;SDS011;29013;49.676;8.606;2022-12-07T23:42:48;10.66;;;5.93;;
43413;SDS011;29013;49.676;8.606;2022-12-07T23:48:11;11.89;;;6.74;;
43413;SDS011;29013;49.676;8.606;2022-12-07T23:53:40;10.77;;;6.14;;
43413;SDS011;29013;49.676;8.606;2022-12-07T23:59:04;12.95;;;7.11;;
